Time;durP1;ratioP1;P1;durP2;ratioP2;P2;SDS_P1;SDS_P2;PMS_P1;PMS_P2;Temp;Humidity;BMP_temperature;BMP_pressure;BME280_temperature;BME280_humidity;BME280_pressure;Samples;Min_cycle;Max_cycle;Signal;HPM_P1;HPM_P2
2021/07/14 00:00:09;;;;;;;21.90;14.32;;;16.80;84.30;;;;;;5069153;28;20386;-74
2021/07/14 00:02:35;;;;;;;19.70;13.50;;;16.80;84.20;;;;;;5079082;28;20036;-75
2021/07/14 00:05:01;;;;;;;23.08;14.40;;;16.80;84.20;;;;;;5077179;28;20032;-74
2021/07/14 00:07:26;;;;;;;21.85;14.18;;;16.80;84.20;;;;;;5069801;28;20494;-75
2021/07/14 00:09:52;;;;;;;21.67;14.07;;;16.80;84.40;;;;;;5070263;28;20051;-76
2021/07/14 00:12:19;;;;;;;22.88;14.63;;;16.80;84.40;;;;;;5071999;28;20049;-75
2021/07/14 00:17:00;;;;;;;22.40;12.98;;;16.80;84.50;;;;;;5069764;28;20132;-74
2021/07/14 00:22:06;;;;;;;21.42;14.07;;;16.80;84.40;;;;;;5071175;28;20068;-75
2021/07/14 00:23:19;;;;;;;24.25;15.43;;;16.70;84.70;;;;;;5075012;28;20075;-75
2021/07/14 00:25:45;;;;;;;23.63;15.05;;;16.70;84.70;;;;;;5081963;28;20467;-75
2021/07/14 00:28:11;;;;;;;20.38;14.43;;;16.80;84.70;;;;;;5089625;28;20028;-74
2021/07/14 00:30:37;;;;;;;22.23;15.13;;;16.80;84.70;;;;;;5073474;28;20043;-74
2021/07/14 00:33:03;;;;;;;22.48;15.43;;;16.70;84.80;;;;;;5070568;28;20040;-74
2021/07/14 00:35:29;;;;;;;24.35;15.68;;;16.70;84.90;;;;;;5079514;28;20379;-75
2021/07/14 00:37:55;;;;;;;23.45;15.45;;;16.80;84.90;;;;;;5070489;28;20045;-75
2021/07/14 00:40:21;;;;;;;23.42;16.08;;;16.70;85.00;;;;;;5070320;28;20037;-76
2021/07/14 00:42:46;;;;;;;24.17;15.55;;;16.80;85.00;;;;;;5071162;28;20040;-77
2021/07/14 00:45:13;;;;;;;22.85;15.18;;;16.70;85.00;;;;;;5070113;28;20531;-75
2021/07/14 00:47:44;;;;;;;21.15;16.65;;;16.80;85.10;;;;;;5070538;28;20530;-75
2021/07/14 00:50:10;;;;;;;23.95;16.05;;;16.70;85.00;;;;;;5088793;28;20236;-75
2021/07/14 00:52:37;;;;;;;21.30;15.68;;;16.70;85.00;;;;;;5078493;28;20546;-75
2021/07/14 00:55:04;;;;;;;23.35;14.93;;;16.70;85.00;;;;;;5084305;28;20150;-76
2021/07/14 00:57:31;;;;;;;24.60;15.30;;;16.70;84.90;;;;;;5080773;28;20558;-76
2021/07/14 00:59:57;;;;;;;22.67;15.70;;;16.70;85.00;;;;;;5083355;28;20030;-75
2021/07/14 01:02:27;;;;;;;21.25;15.65;;;16.70;85.10;;;;;;5069227;28;20037;-77
2021/07/14 01:05:28;;;;;;;25.02;16.52;;;16.80;84.80;;;;;;5069075;28;20039;-76
2021/07/14 01:08:05;;;;;;;22.77;15.25;;;16.70;84.60;;;;;;5077243;28;20040;-76
2021/07/14 01:10:40;;;;;;;21.35;15.57;;;16.80;84.40;;;;;;5069818;28;20028;-76
2021/07/14 01:13:35;;;;;;;19.73;15.27;;;16.70;84.20;;;;;;5068234;28;20083;-76
2021/07/14 01:16:07;;;;;;;24.20;16.65;;;16.80;84.20;;;;;;5073148;28;20044;-76
2021/07/14 01:19:12;;;;;;;22.85;16.00;;;16.80;84.10;;;;;;5069895;28;20060;-75
2021/07/14 01:21:41;;;;;;;23.13;15.63;;;16.80;84.10;;;;;;5080797;28;20060;-75
2021/07/14 01:24:26;;;;;;;26.40;16.38;;;16.80;84.10;;;;;;5075005;28;20037;-76
2021/07/14 01:27:11;;;;;;;;;;;16.80;84.10;;;;;;5087533;28;20145;-77
2021/07/14 01:29:50;;;;;;;23.40;14.52;;;16.80;84.20;;;;;;5093729;28;20003;-76
2021/07/14 01:32:19;;;;;;;24.30;15.85;;;16.80;84.10;;;;;;5075535;28;20045;-75
2021/07/14 01:35:01;;;;;;;20.63;16.65;;;16.80;84.10;;;;;;5068538;28;20051;-75
2021/07/14 01:37:27;;;;;;;21.20;16.02;;;16.80;84.00;;;;;;5078158;28;20052;-75
2021/07/14 01:39:56;;;;;;;24.98;16.65;;;16.80;84.10;;;;;;5082084;28;20654;-76
2021/07/14 01:42:26;;;;;;;28.10;17.42;;;16.80;84.20;;;;;;5080857;28;20033;-76
2021/07/14 01:44:55;;;;;;;23.52;16.38;;;16.80;84.10;;;;;;5072349;28;20039;-76
2021/07/14 01:47:22;;;;;;;23.58;16.75;;;16.80;84.30;;;;;;5083349;28;20123;-75
2021/07/14 01:49:49;;;;;;;24.15;16.85;;;16.80;84.40;;;;;;5070150;28;20033;-76
2021/07/14 01:52:18;;;;;;;24.70;16.05;;;16.80;84.40;;;;;;5077754;28;20477;-75
2021/07/14 01:54:45;;;;;;;22.33;15.73;;;16.70;84.60;;;;;;5080977;28;20028;-76
2021/07/14 01:57:12;;;;;;;24.90;16.10;;;16.80;84.70;;;;;;5076513;28;20044;-76
2021/07/14 01:59:40;;;;;;;23.13;16.60;;;16.80;84.80;;;;;;5070602;28;20032;-76
2021/07/14 02:02:08;;;;;;;26.05;16.48;;;16.80;84.80;;;;;;5069853;28;20044;-77
2021/07/14 02:04:38;;;;;;;21.65;16.42;;;16.80;84.80;;;;;;5086160;28;20054;-76
2021/07/14 02:07:09;;;;;;;21.75;16.00;;;16.70;84.70;;;;;;5078694;28;20398;-77
2021/07/14 02:09:36;;;;;;;24.95;16.92;;;16.70;84.60;;;;;;5068307;28;20037;-76
2021/07/14 02:12:05;;;;;;;28.77;18.10;;;16.80;84.40;;;;;;5069245;28;20045;-77
2021/07/14 02:14:43;;;;;;;24.92;16.50;;;16.70;84.00;;;;;;5068096;28;20060;-77
2021/07/14 02:17:20;;;;;;;23.55;16.50;;;16.70;84.10;;;;;;5083946;28;20050;-79
2021/07/14 02:19:59;;;;;;;24.15;16.88;;;16.70;84.10;;;;;;5081373;28;20036;-76
2021/07/14 02:22:27;;;;;;;25.98;17.98;;;16.70;84.10;;;;;;5077904;28;20112;-76
2021/07/14 02:24:54;;;;;;;24.58;17.55;;;16.70;84.10;;;;;;5072069;28;20040;-76
2021/07/14 02:27:19;;;;;;;24.15;17.65;;;16.70;84.10;;;;;;5075342;28;20059;-76
2021/07/14 02:29:47;;;;;;;23.67;16.70;;;16.70;84.20;;;;;;5083099;28;20494;-77
2021/07/14 02:32:16;;;;;;;23.50;17.08;;;16.70;84.30;;;;;;5084048;28;20119;-78
2021/07/14 02:34:47;;;;;;;21.83;16.98;;;16.70;84.20;;;;;;5071337;28;20029;-79
2021/07/14 02:37:35;;;;;;;24.70;16.63;;;16.70;84.30;;;;;;5067118;28;20395;-74
2021/07/14 02:40:03;;;;;;;24.30;17.02;;;16.80;84.30;;;;;;5062961;28;20094;-74
2021/07/14 02:42:32;;;;;;;30.15;18.75;;;16.70;84.40;;;;;;5073185;28;20391;-76
2021/07/14 02:45:00;;;;;;;23.55;17.08;;;16.70;84.50;;;;;;5067639;28;20459;-74
2021/07/14 02:47:26;;;;;;;26.73;18.50;;;16.70;84.50;;;;;;5075468;28;20066;-77
2021/07/14 02:49:53;;;;;;;25.15;17.33;;;16.70;84.60;;;;;;5068871;28;20561;-79
2021/07/14 02:52:23;;;;;;;27.63;17.63;;;16.70;84.80;;;;;;5068461;28;20495;-76
2021/07/14 02:54:50;;;;;;;26.80;18.70;;;16.70;84.80;;;;;;5077264;28;20036;-74
2021/07/14 02:57:18;;;;;;;24.45;17.85;;;16.70;84.90;;;;;;5081116;28;20047;-75
2021/07/14 02:59:48;;;;;;;28.27;18.15;;;16.70;84.90;;;;;;5084513;28;20040;-75
2021/07/14 03:02:15;;;;;;;28.55;18.20;;;16.70;84.90;;;;;;5080768;28;20040;-77
2021/07/14 03:04:49;;;;;;;27.25;17.25;;;16.70;85.10;;;;;;5071299;28;20386;-75
2021/07/14 03:07:18;;;;;;;26.67;17.52;;;16.60;85.10;;;;;;5070638;28;20037;-74
2021/07/14 03:09:45;;;;;;;24.02;15.15;;;16.70;85.00;;;;;;5080407;28;20414;-75
2021/07/14 03:12:14;;;;;;;22.75;17.05;;;16.70;84.90;;;;;;5076773;28;20127;-75
2021/07/14 03:14:50;;;;;;;27.38;17.02;;;16.60;84.80;;;;;;5072429;28;20031;-73
2021/07/14 03:17:17;;;;;;;24.05;16.13;;;16.60;85.00;;;;;;5070055;28;20040;-74
2021/07/14 03:19:45;;;;;;;29.77;17.33;;;16.70;84.80;;;;;;5087126;28;20059;-74
2021/07/14 03:22:11;;;;;;;26.08;15.80;;;16.60;84.70;;;;;;5075218;28;20626;-75
2021/07/14 03:24:40;;;;;;;26.40;16.88;;;16.60;84.70;;;;;;5071904;28;20040;-76
2021/07/14 03:27:08;;;;;;;23.85;14.40;;;16.60;84.60;;;;;;5071781;28;20044;-76
2021/07/14 03:29:35;;;;;;;24.92;16.08;;;16.70;84.50;;;;;;5070831;28;20123;-76
2021/07/14 03:32:02;;;;;;;22.70;14.93;;;16.60;84.50;;;;;;5085007;28;20463;-75
2021/07/14 03:34:28;;;;;;;22.90;15.15;;;16.60;84.60;;;;;;5072559;28;20090;-76
2021/07/14 03:36:55;;;;;;;25.48;15.18;;;16.60;84.70;;;;;;5072639;28;20500;-77
2021/07/14 03:39:21;;;;;;;25.00;15.98;;;16.60;84.80;;;;;;5085147;28;20561;-75
2021/07/14 03:41:48;;;;;;;21.75;15.35;;;16.60;85.00;;;;;;5087123;28;20070;-75
2021/07/14 03:44:17;;;;;;;28.50;16.00;;;16.60;85.10;;;;;;5075042;28;20473;-75
2021/07/14 03:46:43;;;;;;;26.02;17.50;;;16.60;85.30;;;;;;5071891;28;20037;-76
2021/07/14 03:49:13;;;;;;;27.92;16.38;;;16.60;85.30;;;;;;5069439;28;20024;-77
2021/07/14 03:51:39;;;;;;;32.00;18.35;;;16.60;85.30;;;;;;5070930;28;20429;-75
2021/07/14 03:54:05;;;;;;;27.17;17.00;;;16.60;85.30;;;;;;5072347;28;20063;-76
2021/07/14 03:56:31;;;;;;;23.27;15.55;;;16.60;85.10;;;;;;5080469;28;20467;-78
2021/07/14 03:58:58;;;;;;;26.20;17.63;;;16.60;84.90;;;;;;5073393;28;20041;-75
2021/07/14 04:01:24;;;;;;;22.63;15.70;;;16.60;84.90;;;;;;5069131;28;20040;-75
2021/07/14 04:03:52;;;;;;;22.23;15.73;;;16.60;84.90;;;;;;5079963;28;20387;-75
2021/07/14 04:06:20;;;;;;;23.13;16.58;;;16.60;84.70;;;;;;5076038;28;20399;-75
2021/07/14 04:09:06;;;;;;;20.65;14.85;;;16.60;84.60;;;;;;5078552;28;20124;-77
2021/07/14 04:11:33;;;;;;;21.77;15.02;;;16.60;84.70;;;;;;5082308;28;20032;-74
2021/07/14 04:13:58;;;;;;;25.90;14.93;;;16.60;84.50;;;;;;5081494;28;20115;-76
2021/07/14 04:16:24;;;;;;;20.83;14.88;;;16.60;84.50;;;;;;5085677;28;20127;-76
2021/07/14 04:18:50;;;;;;;21.38;14.15;;;16.60;84.40;;;;;;5070030;28;20040;-75
2021/07/14 04:21:15;;;;;;;21.27;13.75;;;16.60;84.50;;;;;;5070628;28;20044;-75
2021/07/14 04:23:41;;;;;;;18.50;12.80;;;16.60;84.10;;;;;;5079595;28;20052;-76
2021/07/14 04:26:07;;;;;;;19.73;13.27;;;16.60;84.20;;;;;;5074638;28;20032;-75
2021/07/14 04:28:33;;;;;;;17.48;12.55;;;16.60;84.30;;;;;;5077881;28;20068;-75
2021/07/14 04:30:59;;;;;;;21.33;13.93;;;16.60;84.20;;;;;;5069656;28;20040;-76
2021/07/14 04:33:25;;;;;;;20.35;13.00;;;16.60;84.10;;;;;;5080383;28;20033;-75
2021/07/14 04:35:50;;;;;;;17.00;12.02;;;16.60;84.20;;;;;;5069484;28;20044;-75
2021/07/14 04:38:17;;;;;;;20.15;12.73;;;16.60;84.20;;;;;;5085352;28;20040;-75
2021/07/14 04:40:43;;;;;;;17.52;11.70;;;16.70;84.20;;;;;;5082999;28;20035;-74
2021/07/14 04:43:10;;;;;;;17.85;12.02;;;16.60;84.20;;;;;;5090443;28;20475;-74
2021/07/14 04:45:36;;;;;;;19.80;11.30;;;16.70;84.00;;;;;;5084545;28;20093;-74
2021/07/14 04:48:02;;;;;;;16.30;12.27;;;16.70;84.00;;;;;;5088762;28;20044;-74
2021/07/14 04:50:29;;;;;;;18.02;12.77;;;16.80;84.10;;;;;;5074319;28;20050;-76
2021/07/14 04:52:55;;;;;;;16.15;11.88;;;16.80;84.10;;;;;;5072584;28;20036;-75
2021/07/14 04:55:21;;;;;;;17.17;11.48;;;16.80;84.10;;;;;;5086288;28;20044;-74
2021/07/14 04:57:47;;;;;;;16.70;11.38;;;16.80;84.00;;;;;;5080197;28;20036;-79
2021/07/14 05:00:16;;;;;;;15.18;10.48;;;16.80;83.90;;;;;;5075722;28;20442;-78
2021/07/14 05:02:45;;;;;;;15.73;11.65;;;16.80;84.10;;;;;;5070363;28;20476;-75
2021/07/14 05:05:15;;;;;;;18.50;11.10;;;16.70;84.30;;;;;;5077000;28;20470;-76
2021/07/14 05:07:41;;;;;;;18.90;11.15;;;16.80;84.30;;;;;;5070081;28;20044;-75
2021/07/14 05:10:08;;;;;;;16.38;10.32;;;16.80;84.40;;;;;;5068256;28;20111;-75
2021/07/14 05:12:34;;;;;;;16.08;9.70;;;16.80;84.60;;;;;;5068497;28;20067;-77
2021/07/14 05:15:00;;;;;;;20.23;10.70;;;16.80;84.50;;;;;;5070395;28;20036;-77
2021/07/14 05:17:25;;;;;;;15.20;10.45;;;16.80;84.50;;;;;;5075155;28;20044;-75
2021/07/14 05:19:53;;;;;;;17.15;10.52;;;16.80;84.60;;;;;;5071058;28;20124;-76
2021/07/14 05:22:20;;;;;;;15.85;10.63;;;16.80;84.70;;;;;;5068557;28;20050;-77
2021/07/14 05:24:45;;;;;;;19.70;11.85;;;16.80;84.70;;;;;;5073869;28;20106;-76
2021/07/14 05:27:11;;;;;;;18.58;10.57;;;16.80;84.80;;;;;;5069187;28;20426;-79
2021/07/14 05:29:37;;;;;;;18.90;11.73;;;16.80;84.80;;;;;;5068528;28;20430;-77
2021/07/14 05:32:03;;;;;;;16.25;10.80;;;16.80;84.90;;;;;;5075856;28;20458;-75
2021/07/14 05:34:29;;;;;;;17.25;10.25;;;16.80;85.00;;;;;;5082589;28;20028;-75
2021/07/14 05:36:55;;;;;;;20.27;11.77;;;16.90;84.90;;;;;;5068623;28;20086;-76
2021/07/14 05:39:21;;;;;;;17.42;11.68;;;16.90;84.90;;;;;;5087696;28;20490;-72
2021/07/14 05:41:46;;;;;;;19.30;11.13;;;16.90;85.00;;;;;;5079875;28;20511;-77
2021/07/14 05:44:12;;;;;;;20.92;12.07;;;16.90;84.90;;;;;;5077823;28;20059;-73
2021/07/14 05:46:38;;;;;;;19.05;11.48;;;16.80;85.10;;;;;;5082914;28;20028;-73
2021/07/14 05:49:04;;;;;;;20.65;12.38;;;16.90;85.20;;;;;;5070176;28;20032;-73
2021/07/14 05:51:31;;;;;;;20.65;11.23;;;16.90;85.40;;;;;;5068260;28;20086;-73
2021/07/14 05:53:56;;;;;;;19.85;12.02;;;16.90;85.60;;;;;;5068495;28;20036;-73
2021/07/14 05:56:22;;;;;;;21.08;12.95;;;16.80;85.60;;;;;;5087480;28;20024;-74
2021/07/14 05:58:48;;;;;;;20.85;13.45;;;16.90;85.80;;;;;;5089490;28;20501;-72
2021/07/14 06:01:13;;;;;;;16.63;11.90;;;16.80;85.70;;;;;;5081353;28;20028;-73
2021/07/14 06:03:39;;;;;;;20.88;12.90;;;16.80;85.70;;;;;;5085954;28;20047;-73
2021/07/14 06:06:07;;;;;;;24.08;13.57;;;16.80;85.90;;;;;;5087722;28;20391;-73
2021/07/14 06:08:33;;;;;;;21.00;13.38;;;16.80;85.60;;;;;;5075991;28;20032;-72
2021/07/14 06:10:59;;;;;;;20.73;13.63;;;16.80;85.60;;;;;;5069532;28;20174;-72
2021/07/14 06:13:24;;;;;;;21.58;12.85;;;16.80;85.60;;;;;;5067152;28;20041;-74
2021/07/14 06:15:50;;;;;;;19.83;12.98;;;17.00;85.40;;;;;;5069681;28;20048;-72
2021/07/14 06:18:16;;;;;;;20.13;12.40;;;16.90;85.20;;;;;;5076075;28;20048;-72
2021/07/14 06:20:41;;;;;;;20.98;13.35;;;17.00;85.20;;;;;;5072989;28;20035;-73
2021/07/14 06:23:07;;;;;;;18.10;12.55;;;16.90;85.10;;;;;;5072266;28;20103;-73
2021/07/14 06:25:33;;;;;;;19.40;12.73;;;17.00;85.10;;;;;;5071599;28;20038;-73
2021/07/14 06:28:02;;;;;;;21.88;12.85;;;17.00;84.90;;;;;;5069549;28;20448;-72
2021/07/14 06:30:27;;;;;;;16.17;11.13;;;17.00;85.00;;;;;;5068695;28;20059;-73
2021/07/14 06:32:53;;;;;;;20.42;11.73;;;17.00;84.80;;;;;;5073883;28;20032;-73
2021/07/14 06:35:21;;;;;;;18.25;11.25;;;17.00;84.70;;;;;;5068680;28;20043;-72
2021/07/14 06:37:48;;;;;;;16.42;11.27;;;17.00;84.60;;;;;;5071215;28;20044;-77
2021/07/14 06:40:15;;;;;;;18.13;11.60;;;17.00;84.80;;;;;;5082348;28;20039;-73
2021/07/14 06:42:41;;;;;;;17.63;11.70;;;16.90;84.80;;;;;;5079612;28;20067;-72
2021/07/14 06:45:08;;;;;;;18.00;11.15;;;16.90;85.00;;;;;;5070988;28;20479;-72
2021/07/14 06:47:35;;;;;;;18.08;11.05;;;16.80;85.20;;;;;;5071128;28;20530;-73
2021/07/14 06:50:01;;;;;;;18.92;10.55;;;16.90;85.30;;;;;;5070599;28;20440;-75
2021/07/14 06:52:27;;;;;;;17.70;10.88;;;16.90;85.10;;;;;;5073419;28;20086;-73
2021/07/14 06:54:53;;;;;;;15.15;9.65;;;16.80;85.20;;;;;;5076819;28;20025;-72
2021/07/14 06:57:18;;;;;;;17.02;10.57;;;16.80;85.20;;;;;;5070746;28;20047;-78
2021/07/14 06:59:44;;;;;;;16.70;9.77;;;16.80;85.30;;;;;;5074612;28;21374;-75
2021/07/14 07:02:10;;;;;;;15.25;10.15;;;16.80;85.40;;;;;;5081959;28;20119;-73
2021/07/14 07:04:35;;;;;;;13.93;9.10;;;16.80;85.60;;;;;;5072456;28;20148;-73
2021/07/14 07:07:01;;;;;;;16.35;8.88;;;16.70;85.50;;;;;;5070717;28;20669;-74
2021/07/14 07:09:27;;;;;;;16.33;9.57;;;16.80;85.50;;;;;;5072122;28;20532;-73
2021/07/14 07:11:53;;;;;;;18.58;8.70;;;16.90;85.20;;;;;;5072795;28;20052;-75
2021/07/14 07:14:19;;;;;;;14.43;9.25;;;16.80;85.30;;;;;;5074643;28;20052;-78
2021/07/14 07:16:45;;;;;;;13.40;9.63;;;16.90;85.40;;;;;;5085082;28;20374;-72
2021/07/14 07:19:11;;;;;;;14.23;9.23;;;16.90;85.10;;;;;;5070748;28;20515;-72
2021/07/14 07:21:37;;;;;;;13.75;9.07;;;16.80;85.10;;;;;;5072399;28;20518;-72
2021/07/14 07:24:04;;;;;;;13.65;8.48;;;16.90;85.10;;;;;;5079493;28;20518;-73
2021/07/14 07:26:29;;;;;;;14.70;9.60;;;16.90;84.90;;;;;;5076708;28;20033;-73
2021/07/14 07:29:03;;;;;;;14.43;9.65;;;17.00;84.90;;;;;;5088392;28;20447;-75
2021/07/14 07:31:29;;;;;;;14.27;9.00;;;17.10;84.70;;;;;;5070374;28;20044;-74
2021/07/14 07:33:54;;;;;;;14.35;9.77;;;17.10;84.50;;;;;;5086488;28;20028;-73
2021/07/14 07:36:20;;;;;;;17.50;11.25;;;17.10;84.20;;;;;;5085236;28;20040;-72
2021/07/14 07:38:46;;;;;;;18.20;11.57;;;17.20;84.00;;;;;;5071545;28;20052;-71
2021/07/14 07:41:13;;;;;;;21.65;11.40;;;17.10;84.00;;;;;;5071393;28;20031;-71
2021/07/14 07:43:38;;;;;;;20.48;12.00;;;17.10;84.20;;;;;;5070095;28;20471;-72
2021/07/14 07:46:04;;;;;;;18.23;11.57;;;17.20;84.10;;;;;;5084702;28;20127;-74
2021/07/14 07:48:30;;;;;;;20.02;11.77;;;17.10;83.80;;;;;;5070372;28;20064;-71
2021/07/14 07:50:56;;;;;;;19.80;12.55;;;17.10;84.00;;;;;;5071712;28;20079;-71
2021/07/14 07:53:24;;;;;;;17.40;10.98;;;17.10;83.90;;;;;;5069376;28;20386;-72
2021/07/14 07:55:51;;;;;;;19.92;11.68;;;17.10;84.10;;;;;;5069999;28;20028;-72
2021/07/14 07:58:19;;;;;;;19.10;11.43;;;17.10;84.00;;;;;;5076136;28;20086;-72
2021/07/14 08:00:45;;;;;;;18.70;11.77;;;17.10;84.00;;;;;;5075531;28;20068;-72
2021/07/14 08:03:11;;;;;;;18.90;12.13;;;17.10;84.20;;;;;;5072203;28;20028;-72
2021/07/14 08:05:36;;;;;;;20.42;12.73;;;17.10;84.00;;;;;;5074462;28;20042;-72
2021/07/14 08:08:03;;;;;;;21.85;11.75;;;17.10;84.10;;;;;;5079556;28;20040;-71
2021/07/14 08:10:29;;;;;;;19.80;11.70;;;17.20;84.00;;;;;;5069545;28;20120;-72
2021/07/14 08:12:54;;;;;;;19.05;11.45;;;17.20;83.90;;;;;;5071583;28;20115;-72
2021/07/14 08:15:20;;;;;;;20.15;12.40;;;17.30;83.80;;;;;;5070010;28;20165;-72
2021/07/14 08:17:47;;;;;;;20.92;12.65;;;17.30;83.80;;;;;;5078321;28;20060;-72
2021/07/14 08:20:13;;;;;;;20.80;13.55;;;17.30;84.00;;;;;;5074961;28;20068;-72
2021/07/14 08:22:39;;;;;;;19.70;12.38;;;17.30;84.20;;;;;;5069611;28;20059;-73
2021/07/14 08:25:06;;;;;;;18.48;12.48;;;17.40;84.40;;;;;;5074909;28;20447;-72
2021/07/14 08:27:33;;;;;;;21.13;13.38;;;17.40;84.40;;;;;;5070031;28;20451;-72
2021/07/14 08:29:59;;;;;;;20.27;13.13;;;17.10;84.40;;;;;;5068234;28;20029;-72
2021/07/14 08:32:29;;;;;;;19.30;13.52;;;17.10;85.00;;;;;;5077975;28;20036;-73
2021/07/14 08:34:55;;;;;;;26.00;14.40;;;16.90;85.30;;;;;;5083967;28;20039;-72
2021/07/14 08:37:22;;;;;;;24.23;14.27;;;16.80;85.70;;;;;;5080163;28;20105;-72
2021/07/14 08:39:49;;;;;;;20.75;14.43;;;16.90;85.70;;;;;;5090099;28;20077;-72
2021/07/14 08:42:16;;;;;;;25.92;15.43;;;16.80;85.70;;;;;;5071710;28;20052;-73
2021/07/14 08:44:42;;;;;;;21.35;14.55;;;16.80;86.20;;;;;;5084452;28;20029;-72
2021/07/14 08:47:09;;;;;;;23.38;13.77;;;16.80;86.20;;;;;;5080088;28;20051;-72
2021/07/14 08:49:38;;;;;;;24.88;15.73;;;16.80;86.20;;;;;;5069724;28;20041;-72
2021/07/14 08:52:04;;;;;;;25.65;15.57;;;16.70;86.30;;;;;;5069322;28;20387;-73
2021/07/14 08:54:30;;;;;;;24.08;15.27;;;16.80;86.70;;;;;;5081751;28;20067;-72
2021/07/14 08:56:55;;;;;;;25.42;15.38;;;16.80;86.50;;;;;;5069766;28;20483;-72
2021/07/14 08:59:21;;;;;;;22.75;15.70;;;16.90;86.60;;;;;;5067714;28;20458;-73
2021/07/14 09:01:48;;;;;;;24.67;15.80;;;17.10;86.40;;;;;;5067806;28;20042;-73
2021/07/14 09:04:13;;;;;;;22.65;14.45;;;17.00;86.40;;;;;;5070088;28;20056;-73
2021/07/14 09:06:39;;;;;;;24.08;15.27;;;16.90;86.20;;;;;;5069200;28;20101;-73
2021/07/14 09:09:06;;;;;;;25.40;15.45;;;16.90;86.50;;;;;;5069548;28;20036;-73
2021/07/14 09:11:49;;;;;;;22.15;14.23;;;16.90;86.50;;;;;;5069756;28;20028;-72
2021/07/14 09:14:29;;;;;;;21.98;14.07;;;17.00;86.70;;;;;;5071753;28;20491;-72
2021/07/14 09:16:56;;;;;;;23.98;14.70;;;17.00;86.50;;;;;;5079277;28;20028;-73
2021/07/14 09:19:25;;;;;;;23.58;13.95;;;17.00;86.50;;;;;;5074018;28;20036;-73
2021/07/14 09:21:51;;;;;;;22.13;14.57;;;17.00;86.60;;;;;;5070963;28;20036;-73
2021/07/14 09:24:34;;;;;;;22.23;13.77;;;17.00;86.60;;;;;;5076522;28;20457;-73
2021/07/14 09:27:03;;;;;;;17.75;13.05;;;17.00;86.90;;;;;;5070213;28;20119;-72
2021/07/14 09:29:30;;;;;;;19.83;12.73;;;17.00;86.80;;;;;;5087281;28;20043;-73
2021/07/14 09:31:56;;;;;;;20.48;13.10;;;17.00;86.90;;;;;;5082301;28;20028;-75
2021/07/14 09:34:30;;;;;;;23.10;13.20;;;17.10;87.10;;;;;;5069967;28;20041;-72
2021/07/14 09:37:02;;;;;;;17.23;12.30;;;17.10;87.10;;;;;;5073365;28;20048;-72
2021/07/14 09:39:36;;;;;;;18.40;11.75;;;17.00;87.30;;;;;;5067310;28;20111;-73
2021/07/14 09:42:11;;;;;;;13.60;9.70;;;17.00;87.40;;;;;;5077370;28;20028;-74
2021/07/14 09:44:47;;;;;;;14.32;10.15;;;16.80;87.70;;;;;;5080814;28;20043;-73
2021/07/14 09:47:16;;;;;;;16.42;9.85;;;16.80;88.00;;;;;;5078202;28;20403;-74
2021/07/14 09:49:42;;;;;;;15.38;9.55;;;16.80;88.10;;;;;;5067989;28;20032;-73
2021/07/14 09:52:20;;;;;;;12.77;8.93;;;16.70;88.40;;;;;;5068642;28;20032;-72
2021/07/14 09:54:46;;;;;;;13.52;8.85;;;16.80;88.60;;;;;;5076385;28;20455;-72
2021/07/14 09:57:19;;;;;;;15.82;9.00;;;16.90;88.20;;;;;;5076584;28;20127;-73
2021/07/14 09:59:45;;;;;;;13.70;8.90;;;16.80;88.20;;;;;;5073793;28;20025;-72
2021/07/14 10:02:13;;;;;;;15.00;9.25;;;16.80;88.00;;;;;;5073864;28;20474;-73
2021/07/14 10:04:40;;;;;;;15.95;9.32;;;16.80;88.30;;;;;;5067600;28;20040;-72
2021/07/14 10:07:11;;;;;;;14.02;8.98;;;16.70;88.40;;;;;;5083789;28;20032;-74
2021/07/14 10:09:38;;;;;;;14.77;8.40;;;16.70;88.50;;;;;;5081407;28;20502;-73
2021/07/14 10:12:34;;;;;;;14.18;8.82;;;16.70;88.30;;;;;;5069772;28;20039;-75
2021/07/14 10:15:16;;;;;;;16.42;8.50;;;16.80;88.00;;;;;;5071977;28;20104;-73
2021/07/14 10:17:48;;;;;;;15.32;8.45;;;16.80;87.60;;;;;;5072577;28;20051;-73
2021/07/14 10:20:37;;;;;;;11.95;8.40;;;16.80;87.70;;;;;;5078591;28;20387;-77
2021/07/14 10:23:05;;;;;;;12.43;8.30;;;16.90;87.60;;;;;;5071721;28;20049;-74
2021/07/14 10:25:35;;;;;;;14.77;8.15;;;16.90;87.10;;;;;;5077413;28;20060;-72
2021/07/14 10:28:03;;;;;;;13.48;7.45;;;17.00;87.00;;;;;;5086005;28;20156;-74
2021/07/14 10:30:30;;;;;;;12.27;8.15;;;17.10;86.90;;;;;;5074204;28;20036;-72
2021/07/14 10:32:57;;;;;;;11.32;7.25;;;17.10;86.70;;;;;;5092388;28;20024;-71
2021/07/14 10:35:25;;;;;;;13.43;7.40;;;17.10;86.50;;;;;;5075793;28;20029;-73
2021/07/14 10:37:55;;;;;;;14.40;8.07;;;17.10;86.50;;;;;;5072551;28;20075;-72
2021/07/14 10:40:22;;;;;;;11.95;7.70;;;17.10;86.80;;;;;;5087360;28;20036;-71
2021/07/14 10:42:50;;;;;;;13.13;8.13;;;17.10;87.00;;;;;;5071943;28;20047;-72
2021/07/14 10:45:18;;;;;;;13.57;7.80;;;17.10;86.80;;;;;;5070063;28;20041;-73
2021/07/14 10:47:45;;;;;;;13.55;8.32;;;17.10;86.90;;;;;;5083813;28;20502;-72
2021/07/14 10:50:12;;;;;;;12.32;8.75;;;17.10;87.00;;;;;;5075475;28;20234;-72
2021/07/14 10:52:39;;;;;;;16.00;8.75;;;17.10;87.00;;;;;;5071347;28;20109;-72
2021/07/14 10:55:07;;;;;;;12.02;8.18;;;17.10;86.80;;;;;;5070537;28;20510;-72
2021/07/14 10:57:34;;;;;;;12.98;8.23;;;17.10;86.50;;;;;;5071682;28;20166;-72
2021/07/14 11:00:00;;;;;;;16.30;8.77;;;17.10;86.40;;;;;;5072152;28;20037;-73
2021/07/14 11:02:53;;;;;;;12.75;8.15;;;17.20;86.50;;;;;;5086328;28;20020;-72
2021/07/14 11:05:45;;;;;;;17.85;9.07;;;17.30;86.00;;;;;;5076627;28;20123;-73
2021/07/14 11:08:38;;;;;;;13.98;9.30;;;17.30;85.70;;;;;;5065831;28;20090;-71
2021/07/14 11:11:04;;;;;;;14.45;8.40;;;17.40;85.70;;;;;;5071653;28;20041;-71
2021/07/14 11:13:35;;;;;;;14.07;8.73;;;17.40;85.30;;;;;;5072027;28;20033;-71
2021/07/14 11:16:22;;;;;;;13.43;9.38;;;17.40;85.30;;;;;;5082609;28;20062;-71
2021/07/14 11:18:58;;;;;;;14.50;9.32;;;17.40;85.10;;;;;;5091056;28;20044;-71
2021/07/14 11:21:46;;;;;;;14.63;9.15;;;17.50;85.20;;;;;;5075975;28;20483;-73
2021/07/14 11:24:11;;;;;;;13.68;8.48;;;17.50;85.00;;;;;;5070905;28;20055;-73
2021/07/14 11:26:37;;;;;;;12.48;7.75;;;17.50;85.30;;;;;;5069840;28;20033;-75
2021/07/14 11:29:14;;;;;;;14.82;8.25;;;17.40;85.10;;;;;;5087809;28;20032;-73
2021/07/14 11:31:42;;;;;;;11.23;7.90;;;17.50;85.20;;;;;;5071327;28;20082;-73
2021/07/14 11:34:33;;;;;;;11.48;7.10;;;17.50;85.30;;;;;;5071645;28;20048;-74
2021/07/14 11:37:20;;;;;;;12.27;7.32;;;17.60;85.10;;;;;;5073179;28;20063;-71
2021/07/14 11:39:45;;;;;;;11.05;6.43;;;17.50;85.00;;;;;;5069789;28;20040;-76
2021/07/14 11:42:20;;;;;;;10.07;6.65;;;17.50;84.90;;;;;;5069504;28;20060;-73
2021/07/14 11:44:53;;;;;;;9.57;6.40;;;17.50;84.90;;;;;;5069941;28;20172;-73
2021/07/14 11:47:33;;;;;;;10.35;6.32;;;17.60;84.50;;;;;;5076652;28;20482;-73
2021/07/14 11:49:59;;;;;;;10.38;6.50;;;17.80;84.30;;;;;;5071182;28;20033;-76
2021/07/14 11:52:42;;;;;;;9.30;5.88;;;18.00;83.80;;;;;;5071380;28;20063;-72
2021/07/14 11:55:23;;;;;;;11.50;6.45;;;18.10;83.20;;;;;;5078996;28;20116;-73
2021/07/14 11:57:50;;;;;;;12.20;6.93;;;18.10;83.50;;;;;;5071243;28;20085;-73
2021/07/14 12:00:16;;;;;;;9.23;5.82;;;18.30;82.90;;;;;;5084563;28;20043;-77
2021/07/14 12:02:58;;;;;;;9.10;6.10;;;18.20;83.00;;;;;;5084567;28;20090;-73
2021/07/14 12:05:32;;;;;;;9.07;5.97;;;18.10;83.60;;;;;;5073087;28;20093;-73
2021/07/14 12:08:12;;;;;;;11.43;5.70;;;18.10;83.70;;;;;;5089197;28;20036;-73
2021/07/14 12:10:53;;;;;;;10.43;5.95;;;18.10;84.40;;;;;;5076687;28;20055;-72
2021/07/14 12:13:22;;;;;;;11.70;6.30;;;18.10;84.30;;;;;;5070475;28;20036;-73
2021/07/14 12:15:48;;;;;;;11.65;6.43;;;18.20;83.90;;;;;;5078529;28;20025;-74
2021/07/14 12:18:13;;;;;;;9.80;6.28;;;18.30;84.20;;;;;;5078603;28;20037;-74
2021/07/14 12:20:53;;;;;;;10.10;6.00;;;18.40;83.70;;;;;;5069123;28;20134;-73
2021/07/14 12:23:21;;;;;;;11.73;6.55;;;18.50;83.70;;;;;;5071356;28;20040;-72
2021/07/14 12:25:46;;;;;;;9.98;6.38;;;18.50;83.50;;;;;;5086253;28;20070;-72
2021/07/14 12:28:13;;;;;;;11.88;6.70;;;18.60;82.80;;;;;;5070843;28;20500;-72
2021/07/14 12:30:40;;;;;;;9.20;6.05;;;18.50;83.30;;;;;;5069789;28;20044;-72
2021/07/14 12:33:08;;;;;;;9.25;6.38;;;18.50;83.70;;;;;;5069921;28;20024;-72
2021/07/14 12:35:40;;;;;;;9.93;6.22;;;18.40;84.10;;;;;;5075078;28;20384;-74
2021/07/14 12:38:11;;;;;;;10.38;6.53;;;18.50;84.00;;;;;;5068393;28;20048;-73
2021/07/14 12:40:48;;;;;;;9.07;6.50;;;18.50;84.40;;;;;;5069138;28;20412;-74
2021/07/14 12:43:16;;;;;;;9.20;6.05;;;18.60;84.40;;;;;;5069753;28;20032;-73